createdAt,value
2023-04-07T00:00:14.116Z,19.00
2023-04-07T00:01:14.156Z,19.00
2023-04-07T00:02:14.367Z,19.01
2023-04-07T00:03:14.488Z,19.00
2023-04-07T00:04:14.507Z,19.01
2023-04-07T00:05:14.366Z,19.00
2023-04-07T00:06:14.436Z,19.01
2023-04-07T00:07:14.477Z,19.00
2023-04-07T00:08:14.524Z,19.01
2023-04-07T00:09:14.548Z,19.00
2023-04-07T00:10:14.620Z,19.01
2023-04-07T00:11:14.649Z,19.00
2023-04-07T00:12:14.706Z,19.00
2023-04-07T00:13:14.748Z,19.00
2023-04-07T00:14:14.768Z,19.00
2023-04-07T00:15:14.855Z,19.01
2023-04-07T00:16:14.923Z,19.00
2023-04-07T00:17:14.959Z,19.00
2023-04-07T00:18:15.004Z,19.00
2023-04-07T00:19:15.036Z,19.01
2023-04-07T00:20:15.085Z,19.00
2023-04-07T00:21:15.141Z,19.01
2023-04-07T00:22:15.155Z,19.01
2023-04-07T00:23:15.249Z,18.99
2023-04-07T00:24:21.022Z,19.00
2023-04-07T00:25:16.247Z,19.00
2023-04-07T00:26:15.227Z,19.00
2023-04-07T00:27:15.242Z,19.01
2023-04-07T00:28:15.244Z,19.00
2023-04-07T00:29:15.243Z,19.00
2023-04-07T00:30:15.241Z,18.99
2023-04-07T00:31:15.259Z,18.99
2023-04-07T00:32:15.206Z,18.98
2023-04-07T00:33:15.314Z,18.99
2023-04-07T00:34:15.203Z,19.00
2023-04-07T00:35:15.172Z,18.99
2023-04-07T00:36:15.276Z,19.00
2023-04-07T00:37:15.233Z,19.00
2023-04-07T00:38:15.244Z,19.00
2023-04-07T00:39:15.313Z,18.99
2023-04-07T00:40:15.363Z,19.00
2023-04-07T00:41:15.388Z,18.99
2023-04-07T00:42:15.488Z,18.99
2023-04-07T00:43:15.479Z,18.99
2023-04-07T00:44:15.488Z,18.99
2023-04-07T00:45:15.546Z,18.98
2023-04-07T00:46:15.644Z,18.97
2023-04-07T00:47:15.663Z,18.97
2023-04-07T00:48:15.710Z,18.97
2023-04-07T00:49:15.743Z,18.97
2023-04-07T00:50:15.807Z,18.97
2023-04-07T00:51:15.802Z,18.98
2023-04-07T00:52:15.842Z,18.98
2023-04-07T00:53:15.918Z,18.99
2023-04-07T00:54:15.955Z,19.00
2023-04-07T00:55:16.005Z,18.99
2023-04-07T00:56:16.034Z,18.99
2023-04-07T00:57:16.078Z,18.99
2023-04-07T00:58:16.104Z,18.99
2023-04-07T00:59:16.161Z,18.99
2023-04-07T01:00:16.203Z,18.98
2023-04-07T01:01:16.224Z,18.99
2023-04-07T01:02:16.396Z,18.98
2023-04-07T01:03:16.722Z,18.99
2023-04-07T01:04:16.448Z,19.00
2023-04-07T01:05:16.408Z,19.00
2023-04-07T01:06:16.413Z,19.00
2023-04-07T01:07:16.516Z,18.99
2023-04-07T01:08:16.545Z,18.99
2023-04-07T01:09:16.558Z,18.99
2023-04-07T01:10:16.624Z,18.98
2023-04-07T01:11:16.641Z,18.99
2023-04-07T01:12:16.695Z,18.99
2023-04-07T01:13:16.736Z,18.99
2023-04-07T01:14:16.771Z,18.99
2023-04-07T01:15:16.826Z,18.98
2023-04-07T01:16:16.863Z,18.98
2023-04-07T01:17:16.900Z,18.98
2023-04-07T01:18:16.967Z,18.97
2023-04-07T01:19:17.094Z,18.97
2023-04-07T01:20:17.114Z,18.98
2023-04-07T01:21:17.116Z,18.98
2023-04-07T01:22:17.171Z,18.99
2023-04-07T01:23:17.213Z,18.99
2023-04-07T01:24:17.258Z,18.99
2023-04-07T01:25:17.283Z,19.00
2023-04-07T01:26:17.359Z,18.99
2023-04-07T01:27:17.368Z,18.99
2023-04-07T01:28:17.398Z,18.99
2023-04-07T01:29:17.459Z,18.98
2023-04-07T01:30:17.528Z,18.98
2023-04-07T01:31:17.580Z,18.97
2023-04-07T01:32:17.601Z,18.98
2023-04-07T01:33:17.731Z,18.98
2023-04-07T01:34:17.713Z,18.97
2023-04-07T01:35:17.774Z,18.98
2023-04-07T01:36:17.765Z,18.99
2023-04-07T01:37:17.937Z,19.00
2023-04-07T01:38:17.852Z,19.00
2023-04-07T01:39:17.921Z,19.01
2023-04-07T01:40:17.970Z,19.00
2023-04-07T01:41:18.001Z,19.00
2023-04-07T01:42:18.014Z,19.00
2023-04-07T01:43:18.026Z,19.00
2023-04-07T01:44:18.065Z,18.99
2023-04-07T01:45:18.109Z,18.98
2023-04-07T01:46:18.113Z,18.98
2023-04-07T01:47:18.194Z,18.99
2023-04-07T01:48:18.308Z,18.99
2023-04-07T01:49:18.131Z,18.99
2023-04-07T01:50:18.338Z,18.99
2023-04-07T01:51:18.181Z,18.99
2023-04-07T01:52:18.196Z,18.99
2023-04-07T01:53:18.242Z,18.99
2023-04-07T01:54:18.230Z,18.99
2023-04-07T01:55:18.243Z,18.99
2023-04-07T01:56:18.348Z,18.99
2023-04-07T01:57:18.307Z,19.00
2023-04-07T01:58:18.330Z,19.00
2023-04-07T01:59:18.365Z,19.00
2023-04-07T02:00:18.405Z,19.00
2023-04-07T02:01:18.459Z,18.99
2023-04-07T02:02:18.508Z,18.99
2023-04-07T02:03:18.572Z,18.99
2023-04-07T02:04:18.498Z,18.99
2023-04-07T02:05:18.558Z,18.98
2023-04-07T02:06:18.592Z,18.99
2023-04-07T02:07:18.594Z,18.98
2023-04-07T02:08:18.643Z,18.98
2023-04-07T02:09:18.661Z,18.97
2023-04-07T02:10:18.654Z,18.98
2023-04-07T02:11:18.690Z,18.97
2023-04-07T02:12:18.714Z,18.97
2023-04-07T02:13:18.711Z,18.98
2023-04-07T02:14:18.749Z,18.97
2023-04-07T02:15:19.285Z,18.98
2023-04-07T02:16:19.391Z,18.98
2023-04-07T02:17:18.830Z,18.98
2023-04-07T02:18:18.898Z,18.98
2023-04-07T02:19:18.908Z,18.97
2023-04-07T02:20:18.964Z,18.96
2023-04-07T02:21:19.000Z,18.96
2023-04-07T02:22:19.049Z,18.95
2023-04-07T02:23:19.030Z,18.97
2023-04-07T02:24:19.093Z,18.97
2023-04-07T02:25:19.089Z,18.98
2023-04-07T02:26:19.125Z,18.99
2023-04-07T02:27:19.108Z,18.98
2023-04-07T02:28:19.141Z,18.99
2023-04-07T02:29:19.197Z,18.99
2023-04-07T02:30:19.195Z,18.98
2023-04-07T02:31:19.275Z,18.99
2023-04-07T02:32:19.309Z,18.98
2023-04-07T02:33:19.316Z,18.98
2023-04-07T02:34:19.348Z,18.98
2023-04-07T02:35:19.418Z,18.98
2023-04-07T02:36:19.534Z,18.97
2023-04-07T02:37:19.473Z,18.98
2023-04-07T02:38:19.534Z,18.97
2023-04-07T02:39:19.532Z,18.98
2023-04-07T02:40:19.577Z,18.98
2023-04-07T02:41:19.624Z,18.98
2023-04-07T02:42:19.639Z,18.98
2023-04-07T02:43:19.740Z,18.99
2023-04-07T02:44:19.738Z,18.99
2023-04-07T02:45:19.738Z,18.99
2023-04-07T02:46:19.829Z,18.99
2023-04-07T02:47:19.799Z,18.99
2023-04-07T02:48:19.806Z,18.98
2023-04-07T02:49:19.829Z,18.97
2023-04-07T02:50:19.836Z,18.96
2023-04-07T02:51:19.821Z,18.97
2023-04-07T02:52:19.835Z,18.97
2023-04-07T02:53:19.890Z,18.97
2023-04-07T02:54:19.866Z,18.97
2023-04-07T02:55:19.894Z,18.97
2023-04-07T02:56:19.941Z,18.97
2023-04-07T02:57:19.941Z,18.96
2023-04-07T02:58:19.932Z,18.96
2023-04-07T02:59:19.944Z,18.97
2023-04-07T03:00:19.943Z,18.97
2023-04-07T03:01:20.044Z,18.97
2023-04-07T03:02:20.054Z,18.96
2023-04-07T03:03:20.149Z,18.96
2023-04-07T03:04:20.223Z,18.96
2023-04-07T03:05:20.031Z,18.96
2023-04-07T03:06:20.081Z,18.97
2023-04-07T03:07:20.097Z,18.98
2023-04-07T03:08:20.091Z,18.97
2023-04-07T03:09:20.095Z,18.97
2023-04-07T03:10:20.139Z,18.98
2023-04-07T03:11:20.171Z,18.97
2023-04-07T03:12:20.154Z,18.98
2023-04-07T03:13:20.200Z,18.97
2023-04-07T03:14:20.327Z,18.99
2023-04-07T03:15:20.295Z,18.99
2023-04-07T03:16:20.420Z,18.99
2023-04-07T03:17:20.371Z,18.98
2023-04-07T03:18:20.349Z,18.99
2023-04-07T03:19:20.331Z,18.99
2023-04-07T03:20:20.395Z,18.99
2023-04-07T03:21:20.426Z,18.98
2023-04-07T03:22:20.462Z,18.97
2023-04-07T03:23:20.429Z,18.98
2023-04-07T03:24:20.412Z,18.97
2023-04-07T03:25:20.341Z,18.98
2023-04-07T03:26:20.472Z,18.98
2023-04-07T03:27:20.478Z,18.98
2023-04-07T03:28:20.418Z,18.98
2023-04-07T03:29:20.412Z,18.98
2023-04-07T03:30:20.476Z,18.99
2023-04-07T03:31:20.453Z,18.99
2023-04-07T03:32:20.498Z,18.98
2023-04-07T03:33:20.489Z,18.97
2023-04-07T03:34:20.512Z,18.97
2023-04-07T03:35:20.526Z,18.97
2023-04-07T03:36:20.571Z,18.99
2023-04-07T03:37:20.514Z,18.98
2023-04-07T03:38:20.529Z,18.98
2023-04-07T03:39:20.505Z,18.97
2023-04-07T03:40:20.551Z,18.97
2023-04-07T03:41:20.602Z,18.98
2023-04-07T03:42:20.581Z,18.97
2023-04-07T03:43:20.593Z,18.97
2023-04-07T03:44:20.587Z,18.96
2023-04-07T03:45:20.549Z,18.95
2023-04-07T03:46:20.642Z,18.96
2023-04-07T03:47:20.665Z,18.96
2023-04-07T03:48:20.584Z,18.95
2023-04-07T03:49:20.575Z,18.96
2023-04-07T03:50:20.621Z,18.96
2023-04-07T03:51:20.702Z,18.95
2023-04-07T03:52:20.614Z,18.95
2023-04-07T03:53:20.657Z,18.95
2023-04-07T03:54:20.717Z,18.96
2023-04-07T03:55:20.673Z,18.95
2023-04-07T03:56:20.707Z,18.96
2023-04-07T03:57:20.714Z,18.97
2023-04-07T03:58:20.708Z,18.97
2023-04-07T03:59:20.755Z,18.97
2023-04-07T04:00:20.784Z,18.97
2023-04-07T04:01:20.754Z,18.97
2023-04-07T04:02:20.850Z,18.96
2023-04-07T04:03:21.002Z,18.96
2023-04-07T04:04:20.872Z,18.96
2023-04-07T04:05:20.843Z,18.97
2023-04-07T04:06:20.832Z,18.96
2023-04-07T04:07:20.872Z,18.96
2023-04-07T04:08:20.871Z,18.96
2023-04-07T04:09:20.925Z,18.95
2023-04-07T04:10:20.924Z,18.96
2023-04-07T04:11:20.985Z,18.96
2023-04-07T04:12:21.026Z,18.95
2023-04-07T04:13:20.977Z,18.95
2023-04-07T04:14:20.980Z,18.95
2023-04-07T04:15:21.011Z,18.95
2023-04-07T04:16:21.001Z,18.95
2023-04-07T04:17:21.043Z,18.95
2023-04-07T04:18:21.024Z,18.94
2023-04-07T04:19:21.061Z,18.94
2023-04-07T04:20:21.028Z,18.94
2023-04-07T04:21:21.061Z,18.94
2023-04-07T04:22:21.078Z,18.95
2023-04-07T04:23:21.108Z,18.97
2023-04-07T04:24:21.113Z,18.96
2023-04-07T04:25:21.106Z,18.96
2023-04-07T04:26:21.172Z,18.96
2023-04-07T04:27:21.153Z,18.96
2023-04-07T04:28:21.193Z,18.97
2023-04-07T04:29:21.221Z,18.97
2023-04-07T04:30:21.222Z,18.96
2023-04-07T04:31:21.262Z,18.97
2023-04-07T04:32:21.330Z,18.97
2023-04-07T04:33:21.248Z,18.97
2023-04-07T04:34:21.283Z,18.97
2023-04-07T04:35:21.303Z,18.97
2023-04-07T04:36:21.347Z,18.96
2023-04-07T04:37:21.361Z,18.96
2023-04-07T04:38:21.373Z,18.96
2023-04-07T04:39:21.336Z,18.96
2023-04-07T04:40:21.407Z,18.96
2023-04-07T04:41:21.411Z,18.96
2023-04-07T04:42:21.419Z,18.96
2023-04-07T04:43:21.410Z,18.95
2023-04-07T04:44:21.465Z,18.97
2023-04-07T04:45:21.462Z,18.97
2023-04-07T04:46:21.490Z,18.96
2023-04-07T04:47:21.577Z,18.95
2023-04-07T04:48:21.500Z,18.96
2023-04-07T04:49:21.503Z,18.96
2023-04-07T04:50:21.486Z,18.96
2023-04-07T04:51:21.492Z,18.95
2023-04-07T04:52:21.494Z,18.94
2023-04-07T04:53:21.475Z,18.95
2023-04-07T04:54:21.516Z,18.95
2023-04-07T04:55:21.480Z,18.95
2023-04-07T04:56:21.520Z,18.95
2023-04-07T04:57:21.514Z,18.97
2023-04-07T04:58:21.549Z,18.96
2023-04-07T04:59:21.528Z,18.95
2023-04-07T05:00:21.533Z,18.94
2023-04-07T05:01:21.615Z,18.94
2023-04-07T05:02:21.813Z,18.94
2023-04-07T05:03:21.940Z,18.94
2023-04-07T05:04:21.798Z,18.94
2023-04-07T05:05:21.748Z,18.94
2023-04-07T05:06:21.630Z,18.93
2023-04-07T05:07:21.613Z,18.93
2023-04-07T05:08:21.623Z,18.94
2023-04-07T05:09:21.663Z,18.94
2023-04-07T05:10:21.651Z,18.95
2023-04-07T05:11:21.684Z,18.94
2023-04-07T05:12:21.700Z,18.94
2023-04-07T05:13:21.719Z,18.94
2023-04-07T05:14:21.725Z,18.94
2023-04-07T05:15:21.733Z,18.94
2023-04-07T05:16:21.796Z,18.94
2023-04-07T05:17:21.820Z,18.94
2023-04-07T05:18:21.801Z,18.95
2023-04-07T05:19:21.815Z,18.95
2023-04-07T05:20:21.830Z,18.94
2023-04-07T05:21:21.827Z,18.94
2023-04-07T05:22:21.861Z,18.94
2023-04-07T05:23:21.882Z,18.93
2023-04-07T05:24:21.874Z,18.94
2023-04-07T05:25:21.944Z,18.94
2023-04-07T05:26:21.951Z,18.95
2023-04-07T05:27:21.932Z,18.96
2023-04-07T05:28:21.996Z,18.94
2023-04-07T05:29:21.989Z,18.94
2023-04-07T05:30:22.025Z,18.95
2023-04-07T05:31:22.049Z,18.94
2023-04-07T05:32:22.051Z,18.95
2023-04-07T05:33:22.030Z,18.95
2023-04-07T05:34:22.046Z,18.95
2023-04-07T05:35:22.071Z,18.94
2023-04-07T05:36:22.172Z,18.95
2023-04-07T05:37:22.132Z,18.95
2023-04-07T05:38:22.107Z,18.95
2023-04-07T05:39:22.185Z,18.95
2023-04-07T05:40:22.203Z,18.95
2023-04-07T05:41:22.169Z,18.95
2023-04-07T05:42:22.177Z,18.96
2023-04-07T05:43:22.207Z,18.97
2023-04-07T05:44:22.198Z,18.97
2023-04-07T05:45:22.323Z,18.96
2023-04-07T05:46:22.269Z,18.97
2023-04-07T05:47:22.381Z,18.97
2023-04-07T05:48:22.287Z,18.96
2023-04-07T05:49:22.296Z,18.95
2023-04-07T05:50:22.290Z,18.97
2023-04-07T05:51:22.339Z,18.97
2023-04-07T05:52:22.340Z,18.97
2023-04-07T05:53:22.352Z,18.96
2023-04-07T05:54:22.391Z,18.96
2023-04-07T05:55:22.384Z,18.97
2023-04-07T05:56:22.380Z,18.97
2023-04-07T05:57:22.383Z,18.96
2023-04-07T05:58:22.387Z,18.97
2023-04-07T05:59:22.424Z,18.97
2023-04-07T06:00:22.439Z,18.96
2023-04-07T06:01:22.446Z,18.96
2023-04-07T06:02:22.568Z,18.95
2023-04-07T06:03:22.548Z,18.95
2023-04-07T06:04:22.495Z,18.96
2023-04-07T06:05:23.471Z,18.96
2023-04-07T06:06:22.560Z,18.95
2023-04-07T06:07:22.584Z,18.95
2023-04-07T06:08:22.608Z,18.95
2023-04-07T06:09:22.604Z,18.95
2023-04-07T06:10:22.629Z,18.96
2023-04-07T06:11:22.639Z,18.95
2023-04-07T06:12:22.641Z,18.96
2023-04-07T06:13:22.651Z,18.96
2023-04-07T06:14:22.663Z,18.96
2023-04-07T06:15:22.748Z,18.97
2023-04-07T06:16:22.753Z,18.96
2023-04-07T06:17:22.742Z,18.96
2023-04-07T06:18:22.700Z,18.97
2023-04-07T06:19:22.737Z,18.97
2023-04-07T06:20:22.703Z,18.97
2023-04-07T06:21:22.749Z,18.97
2023-04-07T06:22:22.766Z,18.97
2023-04-07T06:23:22.806Z,18.97
2023-04-07T06:24:22.813Z,18.97
2023-04-07T06:25:22.841Z,18.96
2023-04-07T06:26:22.840Z,18.97
2023-04-07T06:27:22.870Z,18.98
2023-04-07T06:28:22.864Z,18.98
2023-04-07T06:29:22.888Z,18.98
2023-04-07T06:30:22.883Z,18.99
2023-04-07T06:31:22.914Z,18.98
2023-04-07T06:32:22.927Z,18.98
2023-04-07T06:33:22.974Z,18.98
2023-04-07T06:34:22.995Z,18.98
2023-04-07T06:35:23.054Z,18.98
2023-04-07T06:36:23.056Z,18.97
2023-04-07T06:37:23.076Z,18.97
2023-04-07T06:38:23.050Z,18.97
2023-04-07T06:39:23.087Z,18.96
2023-04-07T06:40:23.152Z,18.97
2023-04-07T06:41:23.148Z,18.97
2023-04-07T06:42:23.147Z,18.96
2023-04-07T06:43:23.202Z,18.97
2023-04-07T06:44:23.191Z,18.97
2023-04-07T06:45:23.274Z,18.97
2023-04-07T06:46:23.305Z,18.97
2023-04-07T06:47:23.406Z,18.96
2023-04-07T06:48:23.323Z,18.97
2023-04-07T06:49:23.333Z,18.96
2023-04-07T06:50:23.399Z,18.97
2023-04-07T06:51:23.402Z,18.97
2023-04-07T06:52:23.418Z,18.97
2023-04-07T06:53:23.772Z,18.98
2023-04-07T06:54:23.465Z,18.97
2023-04-07T06:55:23.490Z,18.97
2023-04-07T06:56:23.502Z,18.99
2023-04-07T06:57:23.537Z,18.99
2023-04-07T06:58:23.544Z,18.99
2023-04-07T06:59:23.572Z,18.99
2023-04-07T07:00:23.604Z,18.98
2023-04-07T07:01:23.690Z,18.98
2023-04-07T07:02:23.756Z,18.98
2023-04-07T07:03:23.837Z,18.97
2023-04-07T07:04:23.879Z,18.98
2023-04-07T07:05:23.804Z,18.97
2023-04-07T07:06:23.813Z,18.97
2023-04-07T07:07:23.886Z,18.97
2023-04-07T07:08:23.898Z,18.97
2023-04-07T07:09:23.962Z,18.99
2023-04-07T07:10:24.000Z,18.99
2023-04-07T07:11:23.992Z,18.98
2023-04-07T07:12:24.043Z,18.98
2023-04-07T07:13:24.095Z,18.98
2023-04-07T07:14:24.139Z,18.98
2023-04-07T07:15:24.178Z,18.98
2023-04-07T07:16:24.174Z,18.99
2023-04-07T07:17:24.219Z,18.99
2023-04-07T07:18:24.524Z,18.99
2023-04-07T07:19:24.289Z,18.99
2023-04-07T07:20:24.299Z,18.99
2023-04-07T07:21:24.379Z,18.99
2023-04-07T07:22:24.431Z,18.98
2023-04-07T07:23:24.427Z,18.99
2023-04-07T07:24:24.494Z,18.99
2023-04-07T07:25:24.501Z,18.99
2023-04-07T07:26:25.305Z,19.00
2023-04-07T07:27:24.618Z,19.00
2023-04-07T07:28:24.651Z,19.00
2023-04-07T07:29:24.718Z,19.00
2023-04-07T07:30:24.741Z,19.01
2023-04-07T07:31:24.835Z,19.02
2023-04-07T07:32:24.893Z,19.02
2023-04-07T07:33:24.866Z,19.01
2023-04-07T07:34:24.878Z,19.00
2023-04-07T07:35:24.952Z,19.00
2023-04-07T07:36:25.101Z,19.00
2023-04-07T07:37:25.043Z,19.01
2023-04-07T07:38:25.095Z,19.00
2023-04-07T07:39:25.153Z,19.00
2023-04-07T07:40:25.517Z,19.00
2023-04-07T07:41:25.240Z,19.00
2023-04-07T07:42:25.237Z,19.01
2023-04-07T07:43:25.306Z,19.01
2023-04-07T07:44:25.356Z,19.01
2023-04-07T07:45:25.380Z,19.01
2023-04-07T07:46:25.451Z,19.01
2023-04-07T07:47:25.507Z,19.01
2023-04-07T07:48:25.515Z,19.01
2023-04-07T07:49:25.587Z,19.01
2023-04-07T07:50:25.610Z,19.01
2023-04-07T07:51:25.674Z,19.01
2023-04-07T07:52:25.684Z,19.01
2023-04-07T07:53:25.712Z,19.01
2023-04-07T07:54:25.758Z,19.01
2023-04-07T07:55:25.803Z,19.01
2023-04-07T07:56:25.814Z,19.01
2023-04-07T07:57:25.897Z,19.01
2023-04-07T07:58:25.912Z,19.02
2023-04-07T07:59:25.921Z,19.02
2023-04-07T08:00:25.971Z,19.02
2023-04-07T08:01:26.045Z,19.02
2023-04-07T08:02:26.042Z,19.02
2023-04-07T08:03:26.127Z,19.02
2023-04-07T08:04:26.202Z,19.03
2023-04-07T08:05:26.150Z,19.03
2023-04-07T08:06:26.186Z,19.02
2023-04-07T08:07:26.226Z,19.02
2023-04-07T08:08:26.288Z,19.02
2023-04-07T08:09:26.342Z,19.02
2023-04-07T08:10:26.333Z,19.02
2023-04-07T08:11:26.375Z,19.01
2023-04-07T08:12:26.411Z,19.01
2023-04-07T08:13:26.472Z,19.01
2023-04-07T08:14:26.525Z,19.02
2023-04-07T08:15:26.592Z,19.02
2023-04-07T08:16:26.656Z,19.03
2023-04-07T08:17:26.691Z,19.03
2023-04-07T08:18:26.696Z,19.01
2023-04-07T08:19:26.710Z,19.02
2023-04-07T08:20:26.796Z,19.03
2023-04-07T08:21:26.829Z,19.02
2023-04-07T08:22:26.872Z,19.02
2023-04-07T08:23:26.902Z,19.03
2023-04-07T08:24:26.941Z,19.04
2023-04-07T08:25:26.985Z,19.04
2023-04-07T08:26:27.031Z,19.03
2023-04-07T08:27:27.050Z,19.02
2023-04-07T08:28:27.072Z,19.02
2023-04-07T08:29:27.115Z,19.02
2023-04-07T08:30:27.131Z,19.03
2023-04-07T08:31:27.272Z,19.04
2023-04-07T08:32:27.302Z,19.03
2023-04-07T08:33:27.279Z,19.03
2023-04-07T08:34:27.273Z,19.03
2023-04-07T08:35:27.334Z,19.03
2023-04-07T08:36:27.440Z,19.03
2023-04-07T08:37:27.360Z,19.03
2023-04-07T08:38:27.412Z,19.04
2023-04-07T08:39:27.421Z,19.04
2023-04-07T08:40:27.458Z,19.04
2023-04-07T08:41:27.525Z,19.04
2023-04-07T08:42:27.524Z,19.04
2023-04-07T08:43:27.536Z,19.04
2023-04-07T08:44:27.561Z,19.04
2023-04-07T08:45:27.564Z,19.04
2023-04-07T08:46:27.662Z,19.04
2023-04-07T08:47:27.677Z,19.04
2023-04-07T08:48:27.670Z,19.05
2023-04-07T08:49:27.684Z,19.05
2023-04-07T08:50:27.711Z,19.05
2023-04-07T08:51:27.748Z,19.04
2023-04-07T08:52:27.806Z,19.04
2023-04-07T08:53:27.818Z,19.04
2023-04-07T08:54:27.867Z,19.03
2023-04-07T08:55:27.916Z,19.03
2023-04-07T08:56:27.932Z,19.04
2023-04-07T08:57:27.990Z,19.04
2023-04-07T08:58:28.051Z,19.03
2023-04-07T08:59:28.058Z,19.03
2023-04-07T09:00:28.119Z,19.04
2023-04-07T09:01:28.235Z,19.04
2023-04-07T09:02:28.325Z,19.04
2023-04-07T09:03:28.232Z,19.04
2023-04-07T09:04:28.257Z,19.03
2023-04-07T09:05:28.262Z,19.04
2023-04-07T09:06:28.301Z,19.04
2023-04-07T09:07:28.321Z,19.04
2023-04-07T09:08:28.332Z,19.05
2023-04-07T09:09:28.386Z,19.05
2023-04-07T09:10:28.419Z,19.05
2023-04-07T09:11:28.474Z,19.05
2023-04-07T09:12:28.523Z,19.05
2023-04-07T09:13:28.587Z,19.05
2023-04-07T09:14:28.625Z,19.04
2023-04-07T09:15:28.673Z,19.04
2023-04-07T09:16:28.677Z,19.04
2023-04-07T09:17:28.760Z,19.04
2023-04-07T09:18:28.763Z,19.04
2023-04-07T09:19:28.818Z,19.05
2023-04-07T09:20:28.842Z,19.04
2023-04-07T09:21:28.918Z,19.04
2023-04-07T09:22:28.932Z,19.05
2023-04-07T09:23:28.950Z,19.04
2023-04-07T09:24:29.020Z,19.05
2023-04-07T09:25:29.023Z,19.05
2023-04-07T09:26:29.125Z,19.05
2023-04-07T09:27:29.165Z,19.05
2023-04-07T09:28:29.210Z,19.06
2023-04-07T09:29:29.236Z,19.06
2023-04-07T09:30:29.252Z,19.06
2023-04-07T09:31:29.342Z,19.06
2023-04-07T09:32:29.440Z,19.06
2023-04-07T09:33:29.431Z,19.05
2023-04-07T09:34:29.475Z,19.05
2023-04-07T09:35:29.492Z,19.06
2023-04-07T09:36:29.581Z,19.06
2023-04-07T09:37:29.561Z,19.06
2023-04-07T09:38:29.604Z,19.05
2023-04-07T09:39:29.608Z,19.05
2023-04-07T09:40:29.666Z,19.05
2023-04-07T09:41:29.738Z,19.05
2023-04-07T09:42:29.688Z,19.06
2023-04-07T09:43:29.702Z,19.05
2023-04-07T09:44:29.738Z,19.05
2023-04-07T09:45:34.439Z,19.05
2023-04-07T09:46:30.766Z,19.05
2023-04-07T09:47:29.755Z,19.06
2023-04-07T09:48:29.746Z,19.06
2023-04-07T09:49:29.785Z,19.06
2023-04-07T09:50:29.727Z,19.05
2023-04-07T09:51:29.737Z,19.05
2023-04-07T09:52:29.719Z,19.07
2023-04-07T09:53:29.707Z,19.07
2023-04-07T09:54:29.711Z,19.07
2023-04-07T09:55:29.708Z,19.07
2023-04-07T09:56:29.726Z,19.07
2023-04-07T09:57:29.773Z,19.07
2023-04-07T09:58:29.833Z,19.07
2023-04-07T09:59:29.887Z,19.08
2023-04-07T10:00:29.906Z,19.08
2023-04-07T10:01:30.150Z,19.08
2023-04-07T10:02:30.112Z,19.08
2023-04-07T10:03:30.160Z,19.08
2023-04-07T10:04:30.205Z,19.08
2023-04-07T10:05:30.208Z,19.08
2023-04-07T10:06:30.214Z,19.08
2023-04-07T10:07:30.266Z,19.07
2023-04-07T10:08:30.291Z,19.07
2023-04-07T10:09:30.369Z,19.08
2023-04-07T10:10:30.390Z,19.07
2023-04-07T10:11:30.470Z,19.07
2023-04-07T10:12:30.520Z,19.07
2023-04-07T10:13:30.586Z,19.08
2023-04-07T10:14:30.595Z,19.08
2023-04-07T10:15:30.631Z,19.08
2023-04-07T10:16:30.752Z,19.08
2023-04-07T10:17:30.827Z,19.09
2023-04-07T10:18:30.824Z,19.08
2023-04-07T10:19:30.893Z,19.08
2023-04-07T10:20:30.960Z,19.09
2023-04-07T10:21:32.806Z,19.09
2023-04-07T10:22:31.069Z,19.09
2023-04-07T10:23:31.136Z,19.08
2023-04-07T10:24:31.211Z,19.09
2023-04-07T10:25:31.230Z,19.09
2023-04-07T10:26:31.293Z,19.10
2023-04-07T10:27:31.353Z,19.11
2023-04-07T10:28:31.397Z,19.10
2023-04-07T10:29:31.473Z,19.11
2023-04-07T10:30:31.547Z,19.11
2023-04-07T10:31:31.661Z,19.12
2023-04-07T10:32:31.675Z,19.11
2023-04-07T10:33:31.667Z,19.11
2023-04-07T10:34:31.742Z,19.11
2023-04-07T10:35:31.803Z,19.10
2023-04-07T10:36:31.915Z,19.11
2023-04-07T10:37:31.934Z,19.10
2023-04-07T10:38:31.956Z,19.11
2023-04-07T10:39:32.051Z,19.12
2023-04-07T10:40:32.066Z,19.12
2023-04-07T10:41:32.178Z,19.12
2023-04-07T10:42:32.240Z,19.12
2023-04-07T10:43:32.296Z,19.12
2023-04-07T10:44:32.361Z,19.12
2023-04-07T10:45:32.407Z,19.13
2023-04-07T10:46:32.485Z,19.13
2023-04-07T10:47:32.594Z,19.12
2023-04-07T10:48:32.620Z,19.13
2023-04-07T10:49:32.663Z,19.13
2023-04-07T10:50:32.722Z,19.13
2023-04-07T10:51:32.796Z,19.13
2023-04-07T10:52:32.862Z,19.13
2023-04-07T10:53:32.910Z,19.13
2023-04-07T10:54:33.006Z,19.13
2023-04-07T10:55:33.040Z,19.13
2023-04-07T10:56:33.106Z,19.14
2023-04-07T10:57:33.175Z,19.13
2023-04-07T10:58:33.269Z,19.14
2023-04-07T10:59:33.292Z,19.13
2023-04-07T11:00:33.359Z,19.14
2023-04-07T11:01:33.483Z,19.14
2023-04-07T11:02:33.790Z,19.14
2023-04-07T11:03:33.678Z,19.13
2023-04-07T11:04:33.718Z,19.13
2023-04-07T11:05:33.655Z,19.13
2023-04-07T11:06:33.747Z,19.13
2023-04-07T11:07:33.811Z,19.13
2023-04-07T11:08:33.851Z,19.12
2023-04-07T11:09:33.948Z,19.13
2023-04-07T11:10:33.984Z,19.13
2023-04-07T11:11:34.052Z,19.13
2023-04-07T11:12:34.092Z,19.13
2023-04-07T11:13:34.196Z,19.13
2023-04-07T11:14:34.239Z,19.13
2023-04-07T11:15:34.321Z,19.13
2023-04-07T11:16:34.473Z,19.14
2023-04-07T11:17:34.454Z,19.13
2023-04-07T11:18:34.523Z,19.13
2023-04-07T11:19:34.619Z,19.14
2023-04-07T11:20:34.641Z,19.14
2023-04-07T11:21:34.713Z,19.13
2023-04-07T11:22:34.761Z,19.13
2023-04-07T11:23:34.844Z,19.14
2023-04-07T11:24:34.898Z,19.15
2023-04-07T11:25:34.950Z,19.15
2023-04-07T11:26:35.006Z,19.14
2023-04-07T11:27:35.097Z,19.15
2023-04-07T11:28:35.168Z,19.16
2023-04-07T11:29:35.220Z,19.16
2023-04-07T11:30:35.278Z,19.16
2023-04-07T11:31:35.348Z,19.17
2023-04-07T11:32:35.385Z,19.17
2023-04-07T11:33:35.472Z,19.17
2023-04-07T11:34:35.524Z,19.17
2023-04-07T11:35:35.592Z,19.17
2023-04-07T11:36:35.684Z,19.17
2023-04-07T11:37:35.717Z,19.17
2023-04-07T11:38:35.823Z,19.18
2023-04-07T11:39:35.886Z,19.17
2023-04-07T11:40:35.930Z,19.17
2023-04-07T11:41:36.056Z,19.18
2023-04-07T11:42:36.035Z,19.18
2023-04-07T11:43:36.114Z,19.17
2023-04-07T11:44:36.160Z,19.17
2023-04-07T11:45:36.247Z,19.17
2023-04-07T11:46:36.391Z,19.18
2023-04-07T11:47:36.476Z,19.17
2023-04-07T11:48:36.417Z,19.18
2023-04-07T11:49:36.482Z,19.18
2023-04-07T11:50:36.546Z,19.18
2023-04-07T11:51:36.633Z,19.18
2023-04-07T11:52:36.670Z,19.18
2023-04-07T11:53:36.728Z,19.18
2023-04-07T11:54:36.792Z,19.18
2023-04-07T11:55:36.855Z,19.18
2023-04-07T11:56:36.936Z,19.19
2023-04-07T11:57:36.963Z,19.18
2023-04-07T11:58:37.031Z,19.18
2023-04-07T11:59:37.120Z,19.18
2023-04-07T12:00:37.155Z,19.19
2023-04-07T12:01:37.291Z,19.19
2023-04-07T12:02:37.465Z,19.19
2023-04-07T12:03:37.463Z,19.19
2023-04-07T12:04:37.462Z,19.19
2023-04-07T12:05:37.432Z,19.20
2023-04-07T12:06:37.514Z,19.19
2023-04-07T12:07:37.551Z,19.19
2023-04-07T12:08:37.629Z,19.20
2023-04-07T12:09:37.877Z,19.20
2023-04-07T12:10:37.717Z,19.20
2023-04-07T12:11:37.803Z,19.20
2023-04-07T12:12:37.845Z,19.21
2023-04-07T12:13:37.904Z,19.21
2023-04-07T12:14:37.965Z,19.21
2023-04-07T12:15:38.005Z,19.22
2023-04-07T12:16:38.207Z,19.21
2023-04-07T12:17:38.171Z,19.21
2023-04-07T12:18:38.165Z,19.21
2023-04-07T12:19:38.237Z,19.22
2023-04-07T12:20:38.316Z,19.21
2023-04-07T12:21:38.354Z,19.21
2023-04-07T12:22:38.430Z,19.22
2023-04-07T12:23:38.476Z,19.23
2023-04-07T12:24:38.519Z,19.23
2023-04-07T12:25:38.579Z,19.23
2023-04-07T12:26:38.709Z,19.23
2023-04-07T12:28:38.694Z,19.23
2023-04-07T12:29:38.708Z,19.23
2023-04-07T12:30:38.690Z,19.22
2023-04-07T12:31:38.702Z,19.23
2023-04-07T12:32:38.758Z,19.24
2023-04-07T12:33:38.655Z,19.23
2023-04-07T12:34:38.668Z,19.23
2023-04-07T12:35:38.749Z,19.23
2023-04-07T12:36:38.711Z,19.23
2023-04-07T12:37:38.627Z,19.23
2023-04-07T12:38:38.674Z,19.22
2023-04-07T12:39:38.632Z,19.23
2023-04-07T12:40:38.630Z,19.24
2023-04-07T12:41:38.673Z,19.23
2023-04-07T12:42:38.586Z,19.24
2023-04-07T12:43:38.590Z,19.23
2023-04-07T12:44:38.597Z,19.23
2023-04-07T12:45:38.584Z,19.24
2023-04-07T12:46:38.574Z,19.23
2023-04-07T12:47:38.642Z,19.23
2023-04-07T12:48:38.557Z,19.23
2023-04-07T12:49:38.563Z,19.23
2023-04-07T12:50:38.551Z,19.23
2023-04-07T12:51:38.561Z,19.24
2023-04-07T12:52:38.524Z,19.23
2023-04-07T12:53:38.533Z,19.24